Time;durP1;ratioP1;P1;durP2;ratioP2;P2;SDS_P1;SDS_P2;PMS_P1;PMS_P2;Temp;Humidity;BMP_temperature;BMP_pressure;BME280_temperature;BME280_humidity;BME280_pressure;Samples;Min_cycle;Max_cycle;Signal;HPM_P1;HPM_P2
2022/08/17 00:01:07;;;;;;;29.27;26.55;;;;;;;22.88;97.74;100854.16;5255537;28;20399;-70
2022/08/17 00:03:41;;;;;;;28.00;25.52;;;;;;;22.91;98.33;100851.94;5255657;28;20110;-69
2022/08/17 00:06:17;;;;;;;30.25;27.60;;;;;;;22.93;98.06;100847.22;5254070;28;20044;-69
2022/08/17 00:08:55;;;;;;;29.23;26.25;;;;;;;22.94;98.02;100848.84;5254873;28;20082;-70
2022/08/17 00:11:28;;;;;;;30.05;27.35;;;;;;;22.94;97.44;100848.03;5253668;28;20024;-70
2022/08/17 00:14:05;;;;;;;29.30;26.58;;;;;;;22.98;97.81;100838.56;5256185;28;20503;-70
2022/08/17 00:16:43;;;;;;;30.40;27.50;;;;;;;22.91;99.40;100835.91;5256511;28;20033;-70
2022/08/17 00:19:18;;;;;;;28.13;25.48;;;;;;;23.00;97.42;100826.63;5236802;28;20025;-70
2022/08/17 00:21:52;;;;;;;30.98;28.05;;;;;;;22.87;100.00;100826.63;5256870;28;20789;-70
2022/08/17 00:24:23;;;;;;;32.00;29.10;;;;;;;22.85;100.00;100814.53;5253836;28;20037;-70
2022/08/17 00:26:55;;;;;;;32.43;29.43;;;;;;;22.86;100.00;100814.31;5238373;28;20558;-70
2022/08/17 00:29:26;;;;;;;32.20;29.40;;;;;;;22.81;100.00;100806.94;5255940;28;20426;-70
2022/08/17 00:31:57;;;;;;;33.03;29.73;;;;;;;22.98;100.00;100819.84;5255266;28;20024;-70
2022/08/17 00:34:28;;;;;;;30.80;28.07;;;;;;;22.95;100.00;100817.59;5255786;28;20044;-70
2022/08/17 00:37:00;;;;;;;31.77;28.70;;;;;;;22.92;100.00;100810.00;5255727;28;20021;-70
2022/08/17 00:39:32;;;;;;;32.30;29.40;;;;;;;22.92;100.00;100813.53;5253624;28;20045;-70
2022/08/17 00:42:14;;;;;;;32.43;29.47;;;;;;;23.04;100.00;100806.47;5256690;28;20037;-70
2022/08/17 00:44:45;;;;;;;33.47;29.98;;;;;;;22.85;100.00;100806.53;5255108;28;20021;-70
2022/08/17 00:47:17;;;;;;;32.83;29.67;;;;;;;22.87;100.00;100805.28;5253972;28;20483;-70
2022/08/17 00:49:48;;;;;;;34.53;30.83;;;;;;;22.84;100.00;100805.69;5255841;28;20143;-70
2022/08/17 00:52:24;;;;;;;33.00;30.17;;;;;;;22.89;100.00;100807.75;5255230;28;20036;-70
2022/08/17 00:54:55;;;;;;;32.20;29.25;;;;;;;22.81;100.00;100803.47;5253105;28;20119;-70
2022/08/17 00:57:32;;;;;;;33.50;30.70;;;;;;;22.91;100.00;100811.00;5254331;28;20036;-70
2022/08/17 01:00:11;;;;;;;33.45;30.00;;;;;;;22.85;100.00;100801.19;5254265;28;20037;-70
2022/08/17 01:02:45;;;;;;;32.03;29.13;;;;;;;22.80;100.00;100804.47;5253161;28;20025;-70
2022/08/17 01:05:20;;;;;;;34.08;30.85;;;;;;;22.79;100.00;100800.16;5254616;28;20430;-70
2022/08/17 01:07:52;;;;;;;34.38;31.08;;;;;;;22.67;100.00;100797.34;5253342;28;20518;-70
2022/08/17 01:10:42;;;;;;;33.67;30.50;;;;;;;22.79;100.00;100803.66;5254573;28;20059;-70
2022/08/17 01:13:14;;;;;;;34.50;31.50;;;;;;;22.75;100.00;100797.09;5252782;28;20025;-70
2022/08/17 01:15:51;;;;;;;34.50;31.35;;;;;;;22.75;100.00;100798.94;5251369;28;20072;-70
2022/08/17 01:18:25;;;;;;;34.38;31.20;;;;;;;22.68;100.00;100795.50;5249532;28;20043;-70
2022/08/17 01:21:00;;;;;;;34.88;31.73;;;;;;;22.68;100.00;100792.81;5253847;28;20162;-70
2022/08/17 01:23:31;;;;;;;32.78;29.85;;;;;;;22.72;100.00;100792.19;5251419;28;20029;-70
2022/08/17 01:26:04;;;;;;;33.23;30.03;;;;;;;22.65;100.00;100778.03;5252795;28;20116;-70
2022/08/17 01:28:38;;;;;;;32.25;29.45;;;;;;;22.66;100.00;100785.03;5237287;28;20021;-70
2022/08/17 01:31:10;;;;;;;31.92;29.05;;;;;;;22.66;100.00;100781.53;5253839;28;20036;-70
2022/08/17 01:33:41;;;;;;;31.02;28.10;;;;;;;22.66;100.00;100779.69;5244412;28;20391;-70
2022/08/17 01:36:12;;;;;;;32.47;29.50;;;;;;;22.71;100.00;100777.19;5255286;28;20044;-70
2022/08/17 01:38:44;;;;;;;30.67;27.97;;;;;;;22.72;100.00;100778.00;5234737;28;20557;-70
2022/08/17 01:41:17;;;;;;;32.03;29.27;;;;;;;22.74;100.00;100776.78;5253833;28;20028;-70
2022/08/17 01:44:08;;;;;;;31.73;28.92;;;;;;;22.88;100.00;100780.22;5242674;28;20576;-70
2022/08/17 01:46:39;;;;;;;30.35;27.55;;;;;;;22.63;100.00;100773.94;5253299;28;20048;-70
2022/08/17 01:49:11;;;;;;;30.97;28.20;;;;;;;22.67;100.00;100775.16;5254263;28;20304;-70
2022/08/17 01:51:42;;;;;;;31.00;28.37;;;;;;;22.70;100.00;100766.72;5254043;28;20082;-71
2022/08/17 01:54:16;;;;;;;29.93;27.37;;;;;;;22.73;100.00;100766.28;5253181;28;20028;-70
2022/08/17 01:56:49;;;;;;;29.52;26.83;;;;;;;22.70;100.00;100761.38;5253566;28;20103;-70
2022/08/17 01:59:20;;;;;;;28.45;25.85;;;;;;;22.60;100.00;100769.84;5252695;28;20031;-70
2022/08/17 02:01:52;;;;;;;29.20;26.50;;;;;;;22.65;100.00;100772.69;5251360;28;20442;-70
2022/08/17 02:04:23;;;;;;;30.43;27.73;;;;;;;22.63;100.00;100765.94;5252182;28;20115;-70
2022/08/17 02:06:54;;;;;;;30.07;27.47;;;;;;;22.55;100.00;100758.97;5252602;28;20036;-70
2022/08/17 02:09:27;;;;;;;29.43;26.73;;;;;;;22.59;100.00;100762.88;5254388;28;20056;-70
2022/08/17 02:12:02;;;;;;;28.52;26.10;;;;;;;22.54;100.00;100760.84;5251843;28;20518;-69
2022/08/17 02:14:33;;;;;;;31.05;28.15;;;;;;;22.45;100.00;100755.94;5252627;28;20044;-70
2022/08/17 02:17:05;;;;;;;28.07;25.70;;;;;;;22.50;100.00;100764.97;5253803;28;20033;-70
2022/08/17 02:19:36;;;;;;;31.17;27.83;;;;;;;22.50;100.00;100753.44;5253764;28;20491;-70
2022/08/17 02:22:08;;;;;;;30.13;27.23;;;;;;;22.48;100.00;100761.66;5253635;28;20108;-70
2022/08/17 02:24:40;;;;;;;31.67;28.60;;;;;;;22.36;100.00;100766.03;5251026;28;20033;-70
2022/08/17 02:27:11;;;;;;;32.47;29.37;;;;;;;22.35;100.00;100756.38;5253481;28;20028;-70
2022/08/17 02:29:43;;;;;;;32.30;28.87;;;;;;;22.30;100.00;100766.84;5251657;28;20063;-70
2022/08/17 02:32:21;;;;;;;34.13;29.73;;;;;;;22.23;100.00;100761.50;5253116;28;20033;-70
2022/08/17 02:34:52;;;;;;;33.75;30.50;;;;;;;22.14;100.00;100756.63;5252850;28;20060;-70
2022/08/17 02:37:25;;;;;;;33.27;30.03;;;;;;;22.14;100.00;100753.97;5253635;28;20060;-70
2022/08/17 02:39:57;;;;;;;33.45;30.23;;;;;;;22.09;100.00;100749.22;5253345;28;20025;-70
2022/08/17 02:42:40;;;;;;;33.45;30.45;;;;;;;22.06;100.00;100758.44;5251569;28;20025;-70
2022/08/17 02:45:18;;;;;;;33.45;30.27;;;;;;;22.17;100.00;100758.88;5252015;28;20039;-70
2022/08/17 02:47:50;;;;;;;33.67;30.60;;;;;;;22.08;100.00;100751.03;5252756;28;20013;-70
2022/08/17 02:50:22;;;;;;;;;;;;;;;22.75;100.00;100751.69;5252395;28;20553;-70
2022/08/17 02:52:54;;;;;;;35.10;31.75;;;;;;;22.05;100.00;100754.16;5254437;28;19935;-70
2022/08/17 02:55:29;;;;;;;36.50;33.40;;;;;;;22.01;100.00;100746.75;5251575;28;20024;-70
2022/08/17 02:58:02;;;;;;;36.03;32.72;;;;;;;21.84;100.00;100746.38;5249507;28;20044;-70
2022/08/17 03:00:39;;;;;;;37.25;33.75;;;;;;;21.77;100.00;100742.88;5250949;28;20032;-70
2022/08/17 03:03:12;;;;;;;38.30;34.85;;;;;;;21.70;100.00;100740.22;5250395;28;20108;-70
2022/08/17 03:05:45;;;;;;;;;;;;;;;22.41;100.00;100730.69;5235060;28;20497;-70
2022/08/17 03:08:17;;;;;;;36.05;32.78;;;;;;;21.62;100.00;100730.56;5253230;28;19971;-70
2022/08/17 03:10:49;;;;;;;35.58;32.50;;;;;;;21.58;100.00;100736.53;5252511;28;20127;-70
2022/08/17 03:13:21;;;;;;;37.00;33.40;;;;;;;21.52;100.00;100724.84;5253157;28;20058;-70
2022/08/17 03:15:52;;;;;;;36.50;33.27;;;;;;;21.58;100.00;100726.69;5251412;28;20176;-70
2022/08/17 03:18:24;;;;;;;36.03;32.77;;;;;;;21.60;100.00;100732.66;5252478;28;20032;-70
2022/08/17 03:20:59;;;;;;;34.28;31.02;;;;;;;21.58;100.00;100737.34;5251314;28;20025;-70
2022/08/17 03:23:31;;;;;;;35.30;31.80;;;;;;;21.54;100.00;100735.31;5252172;28;20021;-70
2022/08/17 03:26:02;;;;;;;35.97;32.70;;;;;;;21.51;100.00;100736.53;5252687;28;20110;-70
2022/08/17 03:28:33;;;;;;;37.33;33.87;;;;;;;21.53;100.00;100734.47;5234565;28;20115;-69
2022/08/17 03:31:06;;;;;;;35.10;32.10;;;;;;;21.51;100.00;100736.53;5251088;28;20029;-70
2022/08/17 03:33:37;;;;;;;34.83;31.73;;;;;;;21.50;100.00;100739.41;5234173;28;20470;-70
2022/08/17 03:36:09;;;;;;;35.40;32.27;;;;;;;21.49;100.00;100735.09;5253339;28;20031;-70
2022/08/17 03:38:40;;;;;;;34.77;31.37;;;;;;;21.47;100.00;100737.13;5252442;28;20028;-70
2022/08/17 03:41:12;;;;;;;33.83;30.67;;;;;;;21.54;100.00;100735.31;5252893;28;20075;-70
2022/08/17 03:43:44;;;;;;;34.45;31.40;;;;;;;21.51;100.00;100739.19;5252649;28;20078;-70
2022/08/17 03:57:37;;;;;;;35.47;32.08;;;;;;;21.46;100.00;100749.66;5252277;28;20032;-69
2022/08/17 04:00:09;;;;;;;34.20;31.37;;;;;;;21.48;100.00;100754.75;5250952;28;20219;-69
2022/08/17 04:02:41;;;;;;;34.72;31.73;;;;;;;21.44;100.00;100758.88;5251639;28;20626;-69
2022/08/17 04:05:13;;;;;;;35.30;32.00;;;;;;;21.45;100.00;100766.69;5245746;28;20025;-69
2022/08/17 04:07:45;;;;;;;34.03;30.92;;;;;;;21.41;100.00;100783.28;5252977;28;20418;-70
2022/08/17 04:10:16;;;;;;;36.33;32.87;;;;;;;21.46;100.00;100802.16;5252264;28;20052;-70
2022/08/17 04:12:53;;;;;;;38.07;34.67;;;;;;;21.35;100.00;100803.56;5249531;28;20490;-70
2022/08/17 04:15:24;;;;;;;37.47;34.28;;;;;;;21.24;100.00;100815.59;5251330;28;20075;-70
2022/08/17 04:17:56;;;;;;;39.27;35.70;;;;;;;21.26;100.00;100796.75;5251130;28;20028;-70
2022/08/17 04:20:27;;;;;;;37.53;34.30;;;;;;;21.33;100.00;100802.94;5249647;28;20269;-70
2022/08/17 04:23:08;;;;;;;38.17;34.70;;;;;;;21.27;100.00;100780.53;5253241;28;20068;-70
2022/08/17 04:25:44;;;;;;;37.58;33.78;;;;;;;21.37;100.00;100806.84;5251219;28;20086;-70
2022/08/17 04:28:17;;;;;;;37.63;34.40;;;;;;;21.34;100.00;100808.06;5234595;28;20051;-70
2022/08/17 04:30:48;;;;;;;37.88;34.30;;;;;;;21.31;100.00;100811.09;5251467;28;20025;-71
2022/08/17 04:33:23;;;;;;;36.70;33.40;;;;;;;21.36;100.00;100808.66;5252506;28;20556;-71
2022/08/17 04:35:59;;;;;;;36.38;32.92;;;;;;;21.45;100.00;100827.16;5250467;28;20594;-70
2022/08/17 04:38:34;;;;;;;34.97;31.88;;;;;;;21.42;100.00;100844.38;5252113;28;20415;-71
2022/08/17 04:43:57;;;;;;;35.03;31.77;;;;;;;21.42;100.00;100835.56;5255614;28;20032;-71
2022/08/17 04:46:32;;;;;;;34.80;31.52;;;;;;;21.48;100.00;100862.22;5236594;28;20033;-71
2022/08/17 04:49:06;;;;;;;35.22;31.80;;;;;;;21.49;100.00;100845.22;5254794;28;20035;-71
2022/08/17 04:51:40;;;;;;;35.88;32.67;;;;;;;21.34;100.00;100842.72;5253331;28;20027;-71
2022/08/17 04:54:17;;;;;;;36.63;33.33;;;;;;;21.48;100.00;100835.59;5255555;28;20522;-71
2022/08/17 04:56:49;;;;;;;33.65;30.67;;;;;;;21.43;100.00;100846.00;5256851;28;20020;-71
2022/08/17 04:59:21;;;;;;;36.13;32.73;;;;;;;21.46;100.00;100836.78;5255990;28;20044;-71
2022/08/17 05:01:53;;;;;;;33.97;31.00;;;;;;;21.53;100.00;100824.31;5252626;28;20108;-71
2022/08/17 05:04:25;;;;;;;34.20;31.40;;;;;;;21.47;100.00;100833.09;5255793;28;20029;-71
2022/08/17 05:06:56;;;;;;;34.20;30.98;;;;;;;21.50;100.00;100832.69;5254274;28;20367;-71
2022/08/17 05:09:28;;;;;;;35.77;32.57;;;;;;;21.46;100.00;100829.63;5275661;22;21186;-67
2022/08/17 05:12:03;;;;;;;34.93;31.73;;;;;;;21.55;100.00;100820.38;5271646;28;20059;-67
2022/08/17 05:14:34;;;;;;;34.08;30.60;;;;;;;21.48;100.00;100818.75;5272544;28;20024;-67
2022/08/17 05:17:05;;;;;;;34.23;31.10;;;;;;;21.45;100.00;100817.31;5273599;28;20017;-69
2022/08/17 05:19:37;;;;;;;34.13;30.97;;;;;;;21.54;100.00;100817.94;5274848;28;20027;-69
2022/08/17 05:22:08;;;;;;;33.17;30.10;;;;;;;21.53;100.00;100826.97;5276626;28;20068;-69
2022/08/17 05:24:39;;;;;;;33.17;30.00;;;;;;;21.54;100.00;100826.75;5255571;28;20021;-68
2022/08/17 05:27:10;;;;;;;32.03;29.23;;;;;;;21.63;100.00;100827.41;5274446;28;20053;-69
2022/08/17 05:29:42;;;;;;;32.43;29.53;;;;;;;21.62;100.00;100826.56;5275992;28;21121;-69
2022/08/17 05:32:13;;;;;;;33.93;30.70;;;;;;;21.66;100.00;100824.31;5275273;28;20386;-68
2022/08/17 05:34:45;;;;;;;31.27;28.37;;;;;;;21.71;100.00;100821.88;5274245;28;20406;-68
2022/08/17 05:37:16;;;;;;;31.40;28.47;;;;;;;21.79;100.00;100823.53;5276108;28;20033;-68
2022/08/17 05:39:47;;;;;;;30.43;27.73;;;;;;;21.86;100.00;100816.34;5274053;28;20024;-68
2022/08/17 05:42:19;;;;;;;29.90;27.00;;;;;;;21.89;100.00;100815.91;5274800;28;20024;-68
2022/08/17 05:44:51;;;;;;;31.13;28.13;;;;;;;21.92;100.00;100826.19;5273773;28;20056;-68
2022/08/17 05:47:25;;;;;;;29.80;27.00;;;;;;;21.94;100.00;100818.81;5274305;28;20085;-68
2022/08/17 05:49:57;;;;;;;29.80;26.98;;;;;;;21.97;100.00;100822.88;5273591;28;20111;-68
2022/08/17 05:52:33;;;;;;;29.40;26.53;;;;;;;22.22;100.00;100826.59;5275768;28;20032;-68
2022/08/17 05:55:31;;;;;;;29.02;26.33;;;;;;;22.28;100.00;100819.63;5274294;28;20374;-68
2022/08/17 05:58:38;;;;;;;27.90;25.40;;;;;;;22.33;100.00;100822.47;5274923;28;20036;-69
2022/08/17 06:01:15;;;;;;;26.45;23.88;;;;;;;22.31;100.00;100829.88;5252685;28;20487;-69
2022/08/17 06:04:15;;;;;;;27.38;24.77;;;;;;;22.37;100.00;100837.06;5274281;28;20046;-68
2022/08/17 06:07:15;;;;;;;25.95;23.40;;;;;;;22.62;100.00;100834.53;5274842;28;20047;-68
2022/08/17 06:10:00;;;;;;;25.80;23.08;;;;;;;22.46;100.00;100834.97;5268877;28;20455;-65
2022/08/17 06:12:37;;;;;;;26.67;24.27;;;;;;;22.50;100.00;100825.53;5275329;28;20024;-67
2022/08/17 06:15:25;;;;;;;25.77;23.27;;;;;;;22.66;100.00;100829.59;5275200;28;20073;-67
2022/08/17 06:18:00;;;;;;;25.83;23.00;;;;;;;22.67;100.00;100824.03;5273092;28;20907;-67
2022/08/17 06:20:46;;;;;;;25.02;22.60;;;;;;;22.71;100.00;100835.94;5269734;28;20052;-67
2022/08/17 06:23:30;;;;;;;25.33;23.02;;;;;;;22.74;100.00;100845.41;5274385;28;20475;-67
2022/08/17 06:26:13;;;;;;;23.40;21.27;;;;;;;22.75;100.00;100847.84;5274618;28;20043;-67
2022/08/17 06:29:23;;;;;;;23.17;20.95;;;;;;;22.73;100.00;100854.41;5273304;28;20047;-67
2022/08/17 06:31:54;;;;;;;20.85;18.95;;;;;;;22.59;100.00;100849.13;5238947;28;20055;-66
2022/08/17 06:34:26;;;;;;;20.13;18.23;;;;;;;22.64;100.00;100861.03;5266294;28;21207;-66
2022/08/17 06:37:15;;;;;;;21.73;18.10;;;;;;;22.63;100.00;100862.88;5266760;28;20029;-66
2022/08/17 06:40:09;;;;;;;20.00;18.05;;;;;;;22.80;100.00;100865.91;5272110;28;20498;-66
2022/08/17 06:43:05;;;;;;;19.67;17.88;;;;;;;22.64;100.00;100867.19;5272382;28;20039;-66
2022/08/17 06:45:42;;;;;;;18.45;16.85;;;;;;;22.59;100.00;100870.50;5272432;28;20114;-66
2022/08/17 06:48:46;;;;;;;19.27;17.65;;;;;;;22.63;100.00;100870.06;5272670;28;20029;-66
2022/08/17 06:51:24;;;;;;;17.83;16.25;;;;;;;22.50;100.00;100877.09;5266438;28;20058;-66
2022/08/17 06:54:07;;;;;;;17.65;15.95;;;;;;;22.64;100.00;100877.06;5269235;28;20173;-65
2022/08/17 06:56:43;;;;;;;20.27;16.70;;;;;;;22.48;100.00;100883.66;5273160;28;20020;-66
2022/08/17 06:59:19;;;;;;;17.08;15.65;;;;;;;22.47;100.00;100882.84;5260217;28;20139;-67
2022/08/17 07:01:55;;;;;;;16.00;14.35;;;;;;;22.48;100.00;100881.00;5272244;28;20020;-66
2022/08/17 07:04:31;;;;;;;18.00;15.38;;;;;;;22.54;100.00;100889.00;5271984;28;20032;-66
2022/08/17 07:10:00;;;;;;;17.05;15.35;;;;;;;22.58;100.00;100889.41;5269759;28;20048;-68
2022/08/17 07:12:37;;;;;;;;;;;;;;;23.24;100.00;100889.22;5269713;28;20540;-67
2022/08/17 07:15:11;;;;;;;15.43;14.00;;;;;;;22.79;100.00;100894.47;5273195;28;19919;-67
2022/08/17 07:17:45;;;;;;;18.00;14.40;;;;;;;22.68;100.00;100888.97;5266649;28;20486;-67
2022/08/17 07:20:21;;;;;;;15.60;14.10;;;;;;;22.77;100.00;100904.56;5271797;28;20021;-67
2022/08/17 07:23:43;;;;;;;16.58;14.93;;;;;;;23.03;100.00;100909.06;5272009;28;20077;-67
2022/08/17 07:26:15;;;;;;;16.33;14.63;;;;;;;22.85;100.00;100892.00;5216613;28;20511;-67
2022/08/17 07:28:46;;;;;;;15.93;14.33;;;;;;;22.86;100.00;100894.47;5270428;28;20079;-67
2022/08/17 07:31:19;;;;;;;17.77;16.07;;;;;;;22.81;100.00;100894.28;5271994;28;20024;-67
2022/08/17 07:34:05;;;;;;;15.95;14.35;;;;;;;;;;5273336;28;20020;-67
2022/08/17 07:36:36;;;;;;;16.05;14.65;;;;;;;22.89;100.00;100906.59;5271400;28;20028;-67
2022/08/17 07:39:09;;;;;;;17.50;15.70;;;;;;;22.84;100.00;100912.53;5269559;28;20062;-68
2022/08/17 07:41:41;;;;;;;16.92;15.35;;;;;;;22.82;100.00;100918.09;5268982;28;20497;-67
2022/08/17 07:44:15;;;;;;;17.00;15.33;;;;;;;22.89;100.00;100920.75;5272373;28;20176;-68
2022/08/17 07:49:47;;;;;;;15.95;14.45;;;;;;;23.00;100.00;100924.69;5273191;28;20438;-67
2022/08/17 07:52:29;;;;;;;16.00;14.45;;;;;;;23.14;100.00;100922.75;5271298;28;20021;-67
2022/08/17 07:55:25;;;;;;;16.75;15.13;;;;;;;23.31;100.00;100924.75;5271326;28;20032;-68
2022/08/17 07:57:58;;;;;;;16.48;14.75;;;;;;;23.11;100.00;100924.03;5270035;28;20055;-68
2022/08/17 08:00:32;;;;;;;15.93;14.52;;;;;;;23.17;100.00;100920.50;5267092;28;20032;-68
2022/08/17 08:03:14;;;;;;;16.40;14.80;;;;;;;23.37;100.00;100922.25;5271533;28;20020;-68
2022/08/17 08:05:54;;;;;;;16.40;14.93;;;;;;;23.32;100.00;100922.91;5270855;28;20498;-68
2022/08/17 08:08:28;;;;;;;16.48;14.77;;;;;;;23.33;100.00;100923.72;5272576;28;21371;-68
2022/08/17 08:11:07;;;;;;;20.17;14.30;;;;;;;23.47;100.00;100919.97;5269698;28;20071;-67
2022/08/17 08:13:43;;;;;;;17.00;15.30;;;;;;;23.41;100.00;100918.13;5273064;28;20052;-67
2022/08/17 08:16:23;;;;;;;16.33;14.75;;;;;;;23.53;100.00;100919.13;5273386;28;20604;-68
2022/08/17 08:18:58;;;;;;;16.48;14.80;;;;;;;23.53;100.00;100924.47;5274641;28;20032;-68
2022/08/17 08:21:53;;;;;;;17.35;15.65;;;;;;;23.75;100.00;100914.28;5271368;28;20032;-68
2022/08/17 08:24:40;;;;;;;16.92;15.23;;;;;;;23.84;100.00;100922.88;5273216;28;20032;-68
2022/08/17 08:27:43;;;;;;;17.52;15.70;;;;;;;23.94;100.00;100918.69;5255957;28;20127;-67
2022/08/17 08:30:18;;;;;;;17.00;15.27;;;;;;;23.71;100.00;100911.19;5271546;28;20541;-68
2022/08/17 08:33:18;;;;;;;21.02;16.80;;;;;;;23.92;100.00;100903.88;5273053;28;20032;-68
2022/08/17 08:35:59;;;;;;;18.08;16.38;;;;;;;23.65;100.00;100901.34;5274591;28;20028;-68
2022/08/17 08:38:56;;;;;;;19.63;17.65;;;;;;;23.92;100.00;100899.34;5275881;28;20020;-67
2022/08/17 08:41:46;;;;;;;17.63;15.88;;;;;;;23.84;100.00;100902.28;5274542;28;20035;-67
2022/08/17 08:44:38;;;;;;;18.67;16.95;;;;;;;23.88;100.00;100906.19;5275206;28;20469;-67
2022/08/17 08:47:28;;;;;;;19.45;17.65;;;;;;;23.97;100.00;100922.78;5275748;28;20031;-67
2022/08/17 08:50:26;;;;;;;17.80;16.08;;;;;;;24.14;100.00;100929.25;5274001;28;20032;-67
2022/08/17 08:53:14;;;;;;;18.90;17.10;;;;;;;24.12;100.00;100944.69;5275822;28;20096;-67
2022/08/17 08:55:52;;;;;;;18.98;17.27;;;;;;;24.19;100.00;100944.66;5276552;28;20039;-68
2022/08/17 08:58:33;;;;;;;18.45;16.65;;;;;;;24.22;100.00;100953.06;5274305;28;20059;-68
2022/08/17 09:01:14;;;;;;;18.15;16.45;;;;;;;24.33;100.00;100945.38;5275139;28;20079;-68
2022/08/17 09:03:55;;;;;;;20.33;17.05;;;;;;;24.45;100.00;100951.69;5272767;28;20037;-68
2022/08/17 09:06:49;;;;;;;18.80;16.98;;;;;;;24.41;100.00;100945.97;5271887;28;20167;-68
2022/08/17 09:09:39;;;;;;;18.27;16.45;;;;;;;24.63;100.00;100945.56;5273023;28;20017;-68
2022/08/17 09:12:26;;;;;;;17.13;15.35;;;;;;;24.54;100.00;100942.34;5272925;28;20057;-69
2022/08/17 09:15:07;;;;;;;18.73;17.13;;;;;;;24.33;100.00;100940.03;5274393;28;20039;-68
2022/08/17 09:17:54;;;;;;;18.38;16.80;;;;;;;24.47;100.00;100944.25;5271108;28;20371;-68
2022/08/17 09:20:31;;;;;;;17.45;15.80;;;;;;;24.42;100.00;100957.47;5273159;28;20042;-68
2022/08/17 09:23:13;;;;;;;16.80;15.13;;;;;;;24.48;100.00;100957.44;5274446;28;20551;-68
2022/08/17 09:25:50;;;;;;;16.98;15.43;;;;;;;24.39;100.00;100955.22;5273172;28;20028;-68
2022/08/17 09:28:31;;;;;;;16.65;15.05;;;;;;;24.37;100.00;100950.06;5274923;28;20013;-68
2022/08/17 09:31:09;;;;;;;16.13;14.63;;;;;;;24.35;100.00;100954.81;5273277;28;20028;-68
2022/08/17 09:33:44;;;;;;;17.02;15.43;;;;;;;24.31;100.00;100974.22;5273767;28;20423;-68
2022/08/17 09:36:30;;;;;;;16.67;15.05;;;;;;;24.51;100.00;100981.09;5274744;28;20017;-68
2022/08/17 09:39:25;;;;;;;17.48;15.77;;;;;;;24.59;100.00;100992.59;5274260;28;20028;-68
2022/08/17 09:42:04;;;;;;;16.70;15.25;;;;;;;24.50;100.00;101008.91;5273795;28;20065;-68
2022/08/17 09:44:40;;;;;;;16.70;15.10;;;;;;;24.37;100.00;101016.22;5275547;28;20031;-69
2022/08/17 09:47:28;;;;;;;18.40;16.70;;;;;;;24.28;100.00;101023.66;5273813;28;20368;-68
2022/08/17 09:50:10;;;;;;;19.17;17.38;;;;;;;24.18;100.00;101037.53;5274878;28;20598;-68
2022/08/17 09:52:41;;;;;;;19.45;17.35;;;;;;;23.85;100.00;101039.56;5273626;28;20013;-68
2022/08/17 09:55:13;;;;;;;18.33;16.70;;;;;;;23.87;100.00;101043.69;5274968;28;20085;-69
2022/08/17 09:58:13;;;;;;;19.87;17.80;;;;;;;23.94;100.00;101044.47;5274577;28;20028;-68
2022/08/17 10:00:54;;;;;;;19.95;17.90;;;;;;;23.77;100.00;101027.25;5248373;28;20115;-66
2022/08/17 10:03:51;;;;;;;21.17;19.25;;;;;;;23.57;100.00;101011.25;5273880;28;20538;-67
2022/08/17 10:06:32;;;;;;;21.17;19.00;;;;;;;23.65;100.00;101004.84;5274014;28;20029;-67
2022/08/17 10:09:28;;;;;;;22.00;19.40;;;;;;;23.74;100.00;101012.44;5268396;28;20513;-66
2022/08/17 10:12:23;;;;;;;19.98;18.08;;;;;;;23.71;100.00;101022.75;5273684;28;20123;-67
2022/08/17 10:15:01;;;;;;;22.30;19.70;;;;;;;23.47;100.00;101014.38;5272855;28;20032;-66
2022/08/17 10:18:02;;;;;;;22.58;20.48;;;;;;;23.54;100.00;101015.16;5271726;28;20487;-67
2022/08/17 10:26:11;;;;;;;22.42;20.33;;;;;;;23.31;100.00;101007.63;5272774;28;20483;-66
2022/08/17 10:27:07;;;;;;;29.75;22.33;;;;;;;23.16;100.00;101008.91;5274210;28;20122;-67
2022/08/17 10:29:43;;;;;;;25.63;22.98;;;;;;;23.13;100.00;101012.00;5272142;28;20025;-67
2022/08/17 10:32:46;;;;;;;24.02;21.92;;;;;;;23.28;100.00;101004.56;5273554;28;20031;-66
2022/08/17 10:35:42;;;;;;;25.20;22.70;;;;;;;23.25;100.00;101013.00;5253635;28;20221;-66
2022/08/17 10:38:36;;;;;;;25.48;23.08;;;;;;;23.12;100.00;101021.06;5258747;28;20299;-66
2022/08/17 10:41:25;;;;;;;26.08;23.67;;;;;;;23.18;100.00;101015.69;5273213;28;20084;-66
2022/08/17 10:44:23;;;;;;;25.45;23.15;;;;;;;23.18;100.00;101004.16;5272092;28;20025;-66
2022/08/17 10:47:13;;;;;;;26.63;24.08;;;;;;;22.86;100.00;100993.31;5270671;28;20064;-66
2022/08/17 10:49:52;;;;;;;24.85;22.55;;;;;;;22.94;100.00;100990.44;5273412;28;20024;-66
2022/08/17 10:52:26;;;;;;;27.05;24.55;;;;;;;22.89;100.00;100982.22;5270854;28;20023;-69
2022/08/17 10:55:11;;;;;;;25.45;23.05;;;;;;;23.01;100.00;100963.72;5271610;28;20483;-67
2022/08/17 10:57:46;;;;;;;25.55;23.38;;;;;;;22.92;100.00;100965.81;5273030;28;20025;-67
2022/08/17 11:00:17;;;;;;;26.10;23.85;;;;;;;22.72;100.00;100957.75;5270186;28;20035;-67
2022/08/17 11:02:54;;;;;;;24.27;21.80;;;;;;;22.81;100.00;100961.88;5272471;28;20020;-67
2022/08/17 11:05:43;;;;;;;24.33;22.17;;;;;;;22.82;100.00;100976.06;5269174;28;20028;-67
2022/08/17 11:08:34;;;;;;;22.88;20.67;;;;;;;22.65;100.00;100974.81;5251346;28;20494;-67
2022/08/17 11:11:34;;;;;;;24.13;21.95;;;;;;;22.94;100.00;100974.41;5258448;23;20478;-70
2022/08/17 11:14:15;;;;;;;25.13;22.73;;;;;;;22.73;100.00;100974.59;5247367;28;20276;-70
2022/08/17 11:17:26;;;;;;;24.63;22.15;;;;;;;22.82;100.00;100968.84;5250043;28;20711;-70
2022/08/17 11:20:07;;;;;;;23.38;21.27;;;;;;;22.47;100.00;100972.78;5218008;28;20044;-70
2022/08/17 11:22:51;;;;;;;23.90;21.67;;;;;;;22.45;100.00;100974.84;5234852;28;20132;-70
2022/08/17 11:25:53;;;;;;;24.90;22.60;;;;;;;22.75;100.00;100989.41;5241098;28;20075;-70
2022/08/17 11:28:34;;;;;;;24.30;22.23;;;;;;;22.52;100.00;100994.34;5242557;28;20028;-71
2022/08/17 11:31:22;;;;;;;24.15;22.05;;;;;;;22.50;100.00;100999.06;5239680;28;20017;-70
2022/08/17 11:34:00;;;;;;;24.50;22.30;;;;;;;22.48;100.00;101009.13;5239151;28;20021;-69
2022/08/17 11:37:04;;;;;;;24.17;22.13;;;;;;;22.72;100.00;101015.72;5241753;28;20067;-69
2022/08/17 11:39:49;;;;;;;24.75;22.50;;;;;;;22.48;100.00;101034.00;5239240;28;20025;-69
2022/08/17 11:42:34;;;;;;;24.60;22.33;;;;;;;22.66;100.00;101027.22;5235313;28;20028;-71
2022/08/17 11:45:08;;;;;;;24.50;22.30;;;;;;;22.58;100.00;101029.06;5239359;28;20111;-70
2022/08/17 11:53:36;;;;;;;24.92;22.50;;;;;;;22.67;100.00;101044.91;5245482;28;20499;-69
2022/08/17 11:56:30;;;;;;;26.02;23.63;;;;;;;22.87;100.00;101035.00;5242025;28;20090;-69
2022/08/17 11:59:01;;;;;;;24.75;22.55;;;;;;;22.67;100.00;101053.72;5243926;28;20409;-69
2022/08/17 12:01:48;;;;;;;25.17;23.07;;;;;;;22.92;100.00;101055.78;5246823;28;20059;-68
2022/08/17 12:04:20;;;;;;;25.20;23.00;;;;;;;22.66;100.00;101062.78;5244251;28;20052;-68
2022/08/17 12:07:08;;;;;;;24.75;22.60;;;;;;;22.92;100.00;101058.47;5242476;28;20025;-69
2022/08/17 12:09:44;;;;;;;25.05;22.75;;;;;;;22.74;100.00;101067.91;5249545;28;20056;-69
2022/08/17 12:12:28;;;;;;;26.48;23.95;;;;;;;22.69;100.00;101056.19;5244120;28;20084;-68
2022/08/17 12:15:02;;;;;;;26.30;23.80;;;;;;;22.67;100.00;101058.25;5240519;28;20975;-68
2022/08/17 12:17:37;;;;;;;29.35;26.75;;;;;;;22.68;100.00;101057.22;5248515;28;20465;-68
2022/08/17 12:20:23;;;;;;;28.48;26.08;;;;;;;22.81;100.00;101067.91;5246734;28;20698;-68
2022/08/17 12:23:24;;;;;;;28.55;25.88;;;;;;;22.97;100.00;101064.03;5247054;28;20025;-68
2022/08/17 12:26:06;;;;;;;26.92;24.60;;;;;;;22.70;100.00;101063.19;5244701;28;20033;-68